Latest Weather Observations for Port Fairy

IDV60801

Issued at 10:02 pm EST Saturday 29 July 2017 (issued every 30 minutes, with the page automatically refreshed every 10 minutes)

About weather observations | Map of weather stations | Latest weather observations for VIC | Other Formats
Station Details ID: 090175 Name: PORT FAIRY AWS Lat: -38.39 Lon: 142.23 Height: 10.0 m
Data from the previous 72 hours. | See also: Recent months at Port Fairy
Date/Time
EST
Temp
°C
App
Temp
°C
Dew
Point
°C
Rel
Hum
%
Delta-T
°C
Wind Press
QNH
hPa
Press
MSL
hPa
Rain since
9am
mm
Dir  Spd
km/h
Gust
km/h
Spd
kts
Gust
kts
29/10:00pm 11.0 7.3 10.2 95 0.4 NNW 20 37 11 20 1002.9 1002.9 2.4
29/09:30pm 10.8 7.7 10.2 96 0.3 NNW 17 26 9 14 1003.3 1003.3 2.4
29/09:00pm 10.4 7.2 9.8 96 0.3 NNW 17 26 9 14 1003.3 1003.3 2.4
29/08:30pm 10.2 7.3 9.6 96 0.3 N 15 20 8 11 1003.0 1003.0 2.4
29/08:00pm 10.2 8.1 9.6 96 0.3 N 11 20 6 11 1002.9 1002.9 2.4
29/07:30pm 10.5 8.0 9.7 95 0.4 N 13 20 7 11 1002.7 1002.7 2.2
29/07:00pm 10.8 8.7 9.9 94 0.5 NNW 11 17 6 9 1003.3 1003.3 2.0
29/06:30pm 11.3 8.9 10.2 93 0.6 WNW 13 24 7 13 1003.5 1003.5 1.4
29/06:00pm 11.4 9.3 9.8 90 0.8 WNW 11 19 6 10 1002.9 1002.9 0.4
29/05:30pm 11.6 6.7 10.0 90 0.8 WSW 26 32 14 17 1002.2 1002.2 0.2
29/05:00pm 12.6 7.5 9.1 79 1.8 WSW 26 41 14 22 1002.1 1002.1 0.0
29/04:30pm 13.4 11.6 8.0 70 2.7 NW 7 13 4 7 1001.2 1001.2 0.0
29/04:00pm 13.3 11.6 8.2 71 2.5 NNE 7 9 4 5 1000.2 1000.2 0.0
29/03:30pm 13.4 11.8 8.0 70 2.7 NNE 6 7 3 4 1000.7 1000.7 0.0
29/03:00pm 13.6 12.0 7.8 68 2.9 NNW 6 7 3 4 1001.0 1001.0 0.0
29/02:30pm 13.9 13.3 7.4 65 3.2 CALM 0 6 0 3 1001.0 1001.0 0.0
29/02:00pm 14.1 12.0 6.5 60 3.7 NNE 7 13 4 7 1001.6 1001.6 0.0
29/01:30pm 14.1 12.2 6.5 60 3.7 N 6 9 3 5 1002.4 1002.4 0.0
29/01:00pm 14.0 12.4 6.4 60 3.7 NNW 4 9 2 5 1002.5 1002.5 0.0
29/12:30pm 13.9 12.3 6.3 60 3.6 NW 4 7 2 4 1003.1 1003.1 0.0
29/12:00pm 13.7 10.9 5.3 57 4.0 NNW 9 15 5 8 1003.5 1003.5 0.0
29/11:30am 13.6 8.7 5.0 56 4.0 N 20 30 11 16 1003.3 1003.3 0.0
29/11:00am 13.9 8.2 4.8 54 4.2 N 24 43 13 23 1003.7 1003.7 0.0
29/10:30am 13.5 7.8 4.9 56 4.0 N 24 37 13 20 1003.9 1003.9 0.0
29/10:00am 13.3 7.9 4.7 56 4.0 N 22 37 12 20 1004.6 1004.6 0.0
29/09:30am 13.1 7.3 4.5 56 3.9 N 24 39 13 21 1004.6 1004.6 0.0
29/09:00am 13.3 6.7 4.2 54 4.2 N 28 41 15 22 1004.8 1004.8 0.0
29/08:46am 13.2 6.6 4.1 54 4.1 N 28 48 15 26 1004.9 1004.9 0.0
29/08:30am 12.9 7.0 4.1 55 4.0 N 24 37 13 20 1005.0 1005.0 0.0
29/08:00am 12.9 5.8 3.8 54 4.1 N 30 50 16 27 1005.1 1005.1 0.0
29/07:30am 12.9 4.9 3.6 53 4.2 N 35 59 19 32 1004.7 1004.7 0.0
29/07:00am 13.2 4.8 3.6 52 4.3 N 37 61 20 33 1004.9 1004.9 0.0
29/06:30am 13.7 4.9 3.5 50 4.6 N 39 57 21 31 1005.0 1005.0 0.0
29/06:26am 13.8 5.4 3.6 50 4.6 N 37 57 20 31 1005.1 1005.1 0.0
29/06:00am 13.8 5.3 3.3 49 4.7 N 37 56 20 30 1005.1 1005.1 0.0
29/05:30am 14.1 5.2 3.0 47 5.0 N 39 59 21 32 1005.5 1005.5 0.0
29/05:05am 14.3 5.4 2.9 46 5.1 N 39 59 21 32 1005.7 1005.7 0.0
29/05:00am 14.2 5.3 2.8 46 5.1 N 39 56 21 30 1005.8 1005.8 0.0
29/04:30am 14.1 5.6 3.0 47 5.0 N 37 54 20 29 1006.4 1006.4 0.0
29/04:00am 13.6 5.1 3.4 50 4.6 N 37 57 20 31 1007.0 1007.0 0.0
29/03:33am 13.1 5.5 3.7 53 4.2 N 33 54 18 29 1007.5 1007.5 0.0
29/03:30am 13.2 5.2 3.8 53 4.2 N 35 54 19 29 1007.6 1007.6 0.0
29/03:00am 12.9 5.4 4.3 56 3.9 N 33 57 18 31 1008.7 1008.7 0.0
29/02:39am 12.8 5.5 4.5 57 3.8 N 32 50 17 27 1009.1 1009.1 0.0
29/02:30am 12.7 5.4 4.7 58 3.7 N 32 46 17 25 1009.1 1009.1 0.0
29/02:02am 12.6 5.2 4.8 59 3.6 N 33 54 18 29 1009.4 1009.4 0.0
29/02:00am 12.6 5.4 4.8 59 3.6 N 32 48 17 26 1009.5 1009.5 0.0
29/01:31am 12.3 6.0 5.5 63 3.2 N 28 48 15 26 1010.1 1010.1 0.0
29/01:30am 12.3 6.0 5.5 63 3.2 N 28 43 15 23 1010.2 1010.2 0.0
29/01:00am 12.2 5.1 6.3 67 2.8 N 33 57 18 31 1010.7 1010.7 0.0
29/12:51am 12.1 5.2 6.6 69 2.6 N 32 56 17 30 1011.0 1011.0 0.0
29/12:30am 11.7 5.6 6.8 72 2.3 N 28 41 15 22 1011.6 1011.6 0.0
29/12:00am 11.0 6.1 6.7 75 2.0 N 22 35 12 19 1012.2 1012.2 0.0
 
Date/Time
EST
Temp
°C
App
Temp
°C
Dew
Point
°C
Rel
Hum
%
Delta-T
°C
Wind Press
QNH
hPa
Press
MSL
hPa
Rain since
9am
mm
Dir  Spd
km/h
Gust
km/h
Spd
kts
Gust
kts
28/11:30pm 10.8 5.9 6.7 76 1.9 N 22 33 12 18 1012.8 1012.8 0.0
28/11:00pm 10.4 5.8 6.7 78 1.7 N 20 32 11 17 1013.4 1013.4 0.0
28/10:30pm 10.2 5.3 6.7 79 1.6 N 22 33 12 18 1013.8 1013.8 0.0
28/10:00pm 9.9 5.9 6.6 80 1.5 N 17 26 9 14 1014.3 1014.3 0.0
28/09:30pm 9.8 5.4 6.5 80 1.5 N 19 24 10 13 1014.9 1014.9 0.0
28/09:00pm 9.6 5.6 6.5 81 1.4 NNE 17 26 9 14 1015.2 1015.2 0.0
28/08:30pm 9.6 5.9 6.3 80 1.5 NNE 15 24 8 13 1015.5 1015.5 0.0
28/08:00pm 9.9 6.6 6.6 80 1.5 NNE 13 22 7 12 1016.0 1016.0 0.0
28/07:30pm 10.0 6.4 6.7 80 1.5 NNE 15 20 8 11 1016.6 1016.6 0.0
28/07:00pm 10.0 6.4 6.9 81 1.5 N 15 20 8 11 1016.6 1016.6 0.0
28/06:30pm 10.1 7.2 6.6 79 1.6 NNE 11 17 6 9 1016.7 1016.7 0.0
28/06:00pm 10.4 7.9 6.5 77 1.8 NNE 9 17 5 9 1016.9 1016.9 0.0
28/05:30pm 10.7 8.2 6.6 76 1.9 NNE 9 11 5 6 1017.0 1017.0 0.0
28/05:00pm 11.3 8.9 7.0 75 2.0 N 9 15 5 8 1017.0 1017.0 0.0
28/04:30pm 11.7 9.3 7.0 73 2.2 NNW 9 15 5 8 1017.5 1017.5 0.0
28/04:00pm 12.3 9.9 6.8 69 2.6 NNW 9 17 5 9 1017.7 1017.7 0.0
28/03:30pm 12.7 10.8 7.4 70 2.6 NNW 7 15 4 8 1017.9 1017.9 0.0
28/03:00pm 12.8 10.2 6.2 64 3.1 NW 9 17 5 9 1018.0 1018.0 0.0
28/02:30pm 13.2 10.6 6.1 62 3.4 NNW 9 15 5 8 1018.0 1018.0 0.0
28/02:00pm 13.4 11.1 5.8 60 3.6 WNW 7 15 4 8 1018.5 1018.5 0.0
28/01:30pm 13.1 9.5 5.0 58 3.7 WNW 13 22 7 12 1018.6 1018.6 0.0
28/01:00pm 13.1 10.0 5.5 60 3.5 W 11 19 6 10 1018.9 1018.9 0.0
28/12:30pm 13.4 9.9 5.3 58 3.8 W 13 19 7 10 1019.1 1019.1 0.0
28/12:00pm 12.9 8.1 4.6 57 3.8 W 19 28 10 15 1019.6 1019.6 0.0
28/11:30am 13.3 8.9 4.7 56 4.0 W 17 24 9 13 1019.5 1019.5 0.0
28/11:00am 13.0 8.2 4.4 56 3.9 W 19 24 10 13 1019.6 1019.6 0.0
28/10:30am 12.6 8.3 5.3 61 3.4 WSW 17 22 9 12 1019.7 1019.7 0.0
28/10:00am 12.5 7.7 4.5 58 3.6 WSW 19 26 10 14 1019.3 1019.3 0.0
28/09:30am 12.2 7.3 5.1 62 3.3 WSW 20 28 11 15 1019.0 1019.0 0.0
28/09:00am 11.8 6.8 4.8 62 3.2 SW 20 30 11 16 1018.4 1018.4 6.6
28/08:30am 11.7 6.0 5.1 64 3.0 SW 24 33 13 18 1018.2 1018.2 6.6
28/08:00am 11.7 5.4 5.8 67 2.7 WSW 28 37 15 20 1018.3 1018.3 6.6
28/07:30am 11.5 4.5 6.0 69 2.6 W 32 44 17 24 1018.1 1018.1 6.6
28/07:00am 11.8 4.9 6.5 70 2.5 W 32 43 17 23 1017.4 1017.4 6.6
28/06:30am 11.8 4.9 6.3 69 2.6 WSW 32 44 17 24 1016.9 1016.9 6.6
28/06:00am 11.8 4.4 6.7 71 2.4 W 35 46 19 25 1016.6 1016.6 6.6
28/05:30am 12.2 5.6 7.7 74 2.2 WSW 32 43 17 23 1016.1 1016.1 6.6
28/05:00am 12.1 5.2 7.4 73 2.3 WSW 33 44 18 24 1015.8 1015.8 6.6
28/04:30am 11.7 4.4 7.4 75 2.1 WSW 35 46 19 25 1015.6 1015.6 6.6
28/04:00am 11.6 4.8 7.7 77 1.9 WSW 33 48 18 26 1015.4 1015.4 6.6
28/03:30am 11.5 4.0 7.8 78 1.8 W 37 54 20 29 1015.3 1015.3 6.6
28/03:27am 11.7 4.6 8.0 78 1.8 W 35 54 19 29 1015.2 1015.2 6.6
28/03:00am 9.6 5.6 8.4 92 0.6 WNW 19 39 10 21 1014.8 1014.8 6.6
28/02:30am 8.9 5.8 7.4 90 0.7 NW 13 22 7 12 1014.7 1014.7 6.6
28/02:00am 9.0 6.7 7.6 91 0.7 NW 9 17 5 9 1014.4 1014.4 6.4
28/01:30am 8.9 5.4 7.0 88 0.9 NW 15 26 8 14 1014.4 1014.4 6.4
28/01:00am 9.9 5.9 6.6 80 1.5 WNW 17 35 9 19 1014.0 1014.0 6.4
28/12:30am 11.3 4.7 8.7 84 1.3 W 33 44 18 24 1013.8 1013.8 6.4
28/12:16am 10.0 6.2 8.9 93 0.5 WNW 19 46 10 25 1013.6 1013.6 6.4
28/12:00am 9.0 5.3 7.9 93 0.5 NW 17 30 9 16 1013.6 1013.6 6.2
 
Date/Time
EST
Temp
°C
App
Temp
°C
Dew
Point
°C
Rel
Hum
%
Delta-T
°C
Wind Press
QNH
hPa
Press
MSL
hPa
Rain since
9am
mm
Dir  Spd
km/h
Gust
km/h
Spd
kts
Gust
kts
27/11:30pm 8.8 5.0 7.4 91 0.7 NW 17 28 9 15 1013.4 1013.4 6.2
27/11:00pm 8.7 5.6 7.3 91 0.7 NNW 13 22 7 12 1013.3 1013.3 6.0
27/10:30pm 9.3 6.0 8.1 92 0.6 WNW 15 24 8 13 1013.2 1013.2 6.0
27/10:00pm 9.6 5.5 8.5 93 0.5 NW 20 37 11 20 1012.8 1012.8 6.0
27/09:30pm 9.3 6.0 8.2 93 0.5 NW 15 24 8 13 1012.8 1012.8 5.8
27/09:00pm 9.3 6.4 8.1 92 0.6 NW 13 20 7 11 1012.3 1012.3 5.8
27/08:30pm 10.0 7.2 8.6 91 0.7 NW 13 24 7 13 1012.2 1012.2 5.8
27/08:00pm 10.3 6.3 8.9 91 0.7 NNW 20 32 11 17 1011.8 1011.8 5.8
27/07:30pm 10.7 7.0 9.5 92 0.6 NNW 19 28 10 15 1011.5 1011.5 5.8
27/07:00pm 10.7 6.8 9.6 93 0.6 NNW 20 33 11 18 1011.3 1011.3 5.8
27/06:30pm 10.4 6.5 9.3 93 0.5 NNW 20 33 11 18 1011.2 1011.2 5.8
27/06:00pm 10.5 6.6 9.6 94 0.5 NNW 20 35 11 19 1011.2 1011.2 5.6
27/05:30pm 10.4 4.9 9.3 93 0.5 N 28 39 15 21 1011.3 1011.3 3.8
27/05:00pm 10.4 5.7 9.2 92 0.6 N 24 39 13 21 1011.2 1011.2 2.8
27/04:30pm 10.6 6.3 9.2 91 0.7 N 22 39 12 21 1011.4 1011.4 1.6
27/04:00pm 10.9 6.1 9.0 88 0.9 NNW 24 39 13 21 1012.1 1012.1 0.8
27/03:30pm 11.6 7.1 8.6 82 1.5 NNW 22 39 12 21 1013.0 1013.0 0.4
27/03:00pm 12.5 7.1 8.2 75 2.1 NNW 26 41 14 22 1013.5 1013.5 0.0
27/02:30pm 13.7 7.7 7.2 65 3.2 NNW 28 43 15 23 1013.2 1013.2 0.0
27/02:00pm 13.9 8.1 7.9 67 3.0 N 28 44 15 24 1012.3 1012.3 0.0
27/01:30pm 13.6 8.2 8.2 70 2.7 N 26 44 14 24 1013.0 1013.0 0.0
27/01:04pm 13.6 7.8 7.8 68 2.9 N 28 46 15 25 1013.6 1013.6 0.0
27/01:00pm 13.9 9.0 8.3 69 2.8 N 24 43 13 23 1013.8 1013.8 0.0
27/12:30pm 12.6 7.6 7.9 73 2.3 N 24 37 13 20 1014.2 1014.2 0.0
27/12:00pm 12.3 7.2 7.6 73 2.3 N 24 39 13 21 1015.0 1015.0 0.0
27/11:30am 11.7 7.3 7.4 75 2.1 N 20 33 11 18 1015.7 1015.7 0.0
27/11:00am 11.5 7.1 7.6 77 1.9 N 20 30 11 16 1016.5 1016.5 0.0
27/10:30am 11.3 6.7 8.0 80 1.6 N 22 35 12 19 1017.1 1017.1 0.0
27/10:00am 10.3 6.2 7.9 85 1.2 N 19 28 10 15 1017.4 1017.4 0.0
27/09:30am 9.7 6.0 8.1 90 0.8 NNE 17 24 9 13 1017.9 1017.9 0.0
27/09:00am 7.8 4.6 6.9 94 0.4 N 13 19 7 10 1018.4 1018.4 1.0
27/08:30am 6.5 3.1 5.9 96 0.3 N 13 20 7 11 1018.6 1018.6 1.0
27/08:00am 5.5 2.6 4.9 96 0.3 N 9 11 5 6 1019.1 1019.1 1.0
27/07:30am 5.3 2.1 4.9 97 0.2 N 11 17 6 9 1019.2 1019.2 1.0
27/07:00am 5.0 1.3 4.6 97 0.2 NNE 13 17 7 9 1019.3 1019.3 1.0
27/06:30am 4.6 1.2 4.2 97 0.2 N 11 17 6 9 1019.5 1019.5 1.0
27/06:00am 4.0 0.9 3.7 98 0.1 NNE 9 13 5 7 1019.8 1019.8 1.0
27/05:30am 3.9 1.2 3.5 97 0.2 N 7 9 4 5 1020.0 1020.0 1.0
27/05:00am 4.0 0.9 3.6 97 0.2 N 9 11 5 6 1020.3 1020.3 1.0
27/04:30am 4.2 0.8 3.8 97 0.2 N 11 15 6 8 1020.4 1020.4 1.0
27/04:00am 4.3 0.9 3.9 97 0.2 N 11 15 6 8 1020.3 1020.3 1.0
27/03:30am 4.1 0.6 3.7 97 0.2 N 11 17 6 9 1020.7 1020.7 1.0
27/03:00am 4.1 0.6 3.7 97 0.2 NNE 11 13 6 7 1021.0 1021.0 1.0
27/02:30am 4.2 0.8 3.8 97 0.2 N 11 15 6 8 1021.4 1021.4 1.0
27/02:00am 4.2 0.7 3.6 96 0.2 NNE 11 15 6 8 1021.8 1021.8 1.0
27/01:30am 4.5 1.1 3.9 96 0.3 N 11 15 6 8 1021.8 1021.8 1.0
27/01:00am 4.7 1.3 4.1 96 0.3 N 11 15 6 8 1022.0 1022.0 1.0
27/12:30am 5.2 2.3 4.5 95 0.3 N 9 13 5 7 1022.1 1022.1 1.0
27/12:00am 5.5 2.6 4.8 95 0.3 N 9 13 5 7 1022.4 1022.4 1.0
 
Date/Time
EST
Temp
°C
App
Temp
°C
Dew
Point
°C
Rel
Hum
%
Delta-T
°C
Wind Press
QNH
hPa
Press
MSL
hPa
Rain since
9am
mm
Dir  Spd
km/h
Gust
km/h
Spd
kts
Gust
kts
26/11:30pm 5.9 3.4 5.0 94 0.4 N 7 13 4 7 1022.6 1022.6 1.0
26/11:00pm 6.5 3.8 5.6 94 0.4 N 9 15 5 8 1022.9 1022.9 1.0
26/10:30pm 6.6 3.9 5.7 94 0.4 NNW 9 13 5 7 1023.0 1023.0 1.0

Other Formats:

Comma delimited format used in spreadsheet applications
http://www.bom.gov.au/fwo/IDV60801/IDV60801.94830.axf

JavaScript Object Notation format (JSON) in row-major order
http://www.bom.gov.au/fwo/IDV60801/IDV60801.94830.json